Time;durP1;ratioP1;P1;durP2;ratioP2;P2;SDS_P1;SDS_P2;PMS_P1;PMS_P2;Temp;Humidity;BMP_temperature;BMP_pressure;BME280_temperature;BME280_humidity;BME280_pressure;Samples;Min_cycle;Max_cycle;Signal;HPM_P1;HPM_P2
2022/01/13 00:01:38;;;;;;;83.82;25.52;;;;;;;;;;5092915;28;20039;-85
2022/01/13 00:04:04;;;;;;;79.72;24.10;;;;;;;;;;5074351;28;20037;-86
2022/01/13 00:06:30;;;;;;;69.28;22.00;;;;;;;;;;5091394;28;20036;-85
2022/01/13 00:08:56;;;;;;;92.10;24.00;;;;;;;;;;5091089;28;20380;-85
2022/01/13 00:11:22;;;;;;;81.45;24.80;;;;;;;;;;5092802;28;20110;-85
2022/01/13 00:14:08;;;;;;;79.30;22.52;;;;;;;;;;5094970;28;20046;-85
2022/01/13 00:19:32;;;;;;;78.53;23.45;;;;;;;;;;5094743;28;20087;-85
2022/01/13 00:22:00;;;;;;;80.72;23.63;;;;;;;;;;5096112;28;20044;-85
2022/01/13 00:24:26;;;;;;;83.03;22.65;;;;;;;;;;5094766;28;20048;-86
2022/01/13 00:26:53;;;;;;;77.25;23.15;;;;;;;;;;5094925;28;20091;-85
2022/01/13 00:29:25;;;;;;;73.88;23.23;;;;;;;;;;5095987;28;20052;-85
2022/01/13 00:31:52;;;;;;;106.22;26.63;;;;;;;;;;5096364;28;20067;-86
2022/01/13 00:34:17;;;;;;;84.30;23.40;;;;;;;;;;5077617;28;20040;-85
2022/01/13 00:36:43;;;;;;;77.25;24.08;;;;;;;;;;5094628;28;20148;-85
2022/01/13 00:39:11;;;;;;;87.45;23.80;;;;;;;;;;5094431;28;20056;-85
2022/01/13 00:41:37;;;;;;;76.03;22.27;;;;;;;;;;5096255;28;20035;-86
2022/01/13 00:44:05;;;;;;;62.83;19.95;;;;;;;;;;5094405;28;20048;-85
2022/01/13 00:46:41;;;;;;;71.10;22.35;;;;;;;;;;5094776;28;20395;-86
2022/01/13 00:49:07;;;;;;;89.20;24.20;;;;;;;;;;5094398;28;20044;-85
2022/01/13 00:51:33;;;;;;;63.88;20.58;;;;;;;;;;5094669;28;20050;-85
2022/01/13 00:54:04;;;;;;;66.85;21.38;;;;;;;;;;5094466;28;20123;-85
2022/01/13 00:56:31;;;;;;;69.53;21.73;;;;;;;;;;5095974;28;20058;-85
2022/01/13 00:58:57;;;;;;;53.38;18.38;;;;;;;;;;5095531;28;20467;-85
2022/01/13 01:01:23;;;;;;;48.22;18.13;;;;;;;;;;5077456;28;20040;-85
2022/01/13 01:03:49;;;;;;;46.58;17.20;;;;;;;;;;5094355;28;20374;-85
2022/01/13 01:06:15;;;;;;;48.92;16.88;;;;;;;;;;5095603;28;20042;-85
2022/01/13 01:08:42;;;;;;;40.13;16.00;;;;;;;;;;5094170;28;20085;-85
2022/01/13 01:11:08;;;;;;;51.90;17.85;;;;;;;;;;5094235;28;20036;-85
2022/01/13 01:13:36;;;;;;;45.83;18.10;;;;;;;;;;5095229;28;20040;-85
2022/01/13 01:16:05;;;;;;;47.92;18.77;;;;;;;;;;5093959;28;20036;-85
2022/01/13 01:18:52;;;;;;;51.05;18.80;;;;;;;;;;5093986;28;20096;-85
2022/01/13 01:21:36;;;;;;;42.28;17.77;;;;;;;;;;5076961;28;20048;-85
2022/01/13 01:26:52;;;;;;;41.50;16.40;;;;;;;;;;5093847;28;20208;-86
2022/01/13 01:31:53;;;;;;;41.45;16.85;;;;;;;;;;5094067;28;20056;-85
2022/01/13 01:34:40;;;;;;;40.42;16.63;;;;;;;;;;5094698;28;20372;-85
2022/01/13 01:37:18;;;;;;;39.67;16.63;;;;;;;;;;5076612;28;20048;-85
2022/01/13 01:39:45;;;;;;;39.80;16.58;;;;;;;;;;5093528;28;20059;-85
2022/01/13 01:42:11;;;;;;;41.03;17.02;;;;;;;;;;5093559;28;20051;-85
2022/01/13 01:44:41;;;;;;;40.95;16.33;;;;;;;;;;5094436;28;20403;-85
2022/01/13 01:47:10;;;;;;;39.92;16.20;;;;;;;;;;5093745;28;20047;-85
2022/01/13 01:49:40;;;;;;;41.67;16.85;;;;;;;;;;5094617;28;20075;-86
2022/01/13 01:52:07;;;;;;;48.78;17.23;;;;;;;;;;5093505;28;20051;-85
2022/01/13 01:54:33;;;;;;;44.03;16.58;;;;;;;;;;5093049;28;20487;-85
2022/01/13 01:56:59;;;;;;;37.85;15.85;;;;;;;;;;5093300;28;20174;-85
2022/01/13 01:59:29;;;;;;;41.70;15.50;;;;;;;;;;5093056;28;20044;-85
2022/01/13 02:01:55;;;;;;;48.95;16.55;;;;;;;;;;5076703;28;20040;-85
2022/01/13 02:04:24;;;;;;;39.47;14.90;;;;;;;;;;5094297;28;20036;-85
2022/01/13 02:06:50;;;;;;;38.72;15.27;;;;;;;;;;5094388;28;20050;-85
2022/01/13 02:09:18;;;;;;;54.10;17.63;;;;;;;;;;5093302;28;20347;-85
2022/01/13 02:11:48;;;;;;;42.45;15.40;;;;;;;;;;5075836;28;20048;-85
2022/01/13 02:16:51;;;;;;;43.78;15.45;;;;;;;;;;5094186;28;20048;-85
2022/01/13 02:19:17;;;;;;;41.30;14.80;;;;;;;;;;5092784;28;20082;-85
2022/01/13 02:21:43;;;;;;;42.60;16.15;;;;;;;;;;5092845;28;20423;-85
2022/01/13 02:24:09;;;;;;;38.67;15.27;;;;;;;;;;5093900;28;20491;-85
2022/01/13 02:26:36;;;;;;;43.00;15.93;;;;;;;;;;5093954;28;20036;-85
2022/01/13 02:29:02;;;;;;;40.45;14.57;;;;;;;;;;5092620;28;20051;-84
2022/01/13 02:31:28;;;;;;;37.60;16.08;;;;;;;;;;5093831;28;20043;-85
2022/01/13 02:33:55;;;;;;;37.33;14.60;;;;;;;;;;5093864;28;20105;-84
2022/01/13 02:36:22;;;;;;;41.42;15.68;;;;;;;;;;5093148;28;20467;-85
2022/01/13 02:38:49;;;;;;;38.50;16.10;;;;;;;;;;5092344;28;20051;-85
2022/01/13 02:41:15;;;;;;;39.55;14.88;;;;;;;;;;5075512;28;20044;-85
2022/01/13 02:43:43;;;;;;;36.90;16.33;;;;;;;;;;5093792;28;20093;-86
2022/01/13 02:46:29;;;;;;;34.35;14.02;;;;;;;;;;5093657;28;20036;-85
2022/01/13 02:48:55;;;;;;;38.25;14.50;;;;;;;;;;5075394;28;20051;-85
2022/01/13 02:51:21;;;;;;;39.40;15.20;;;;;;;;;;5093502;28;20430;-85
2022/01/13 02:53:47;;;;;;;35.88;14.45;;;;;;;;;;5092149;28;20071;-86
2022/01/13 02:56:13;;;;;;;41.92;15.35;;;;;;;;;;5093406;28;20036;-85
2022/01/13 02:58:39;;;;;;;36.35;14.90;;;;;;;;;;5092488;28;20036;-85
2022/01/13 03:01:06;;;;;;;37.45;14.43;;;;;;;;;;5092215;28;20071;-85
2022/01/13 03:03:34;;;;;;;34.03;14.20;;;;;;;;;;5092233;28;20043;-85
2022/01/13 03:06:07;;;;;;;38.72;14.27;;;;;;;;;;5091842;28;20048;-85
2022/01/13 03:08:33;;;;;;;37.90;15.02;;;;;;;;;;5092236;28;20136;-85
2022/01/13 03:10:59;;;;;;;43.20;14.80;;;;;;;;;;5091778;28;20135;-86
2022/01/13 03:13:28;;;;;;;31.45;13.82;;;;;;;;;;5091836;28;20399;-85
2022/01/13 03:15:54;;;;;;;34.13;14.32;;;;;;;;;;5093215;28;20040;-84
2022/01/13 03:18:20;;;;;;;41.15;15.38;;;;;;;;;;5091910;28;20110;-86
2022/01/13 03:20:46;;;;;;;34.38;12.70;;;;;;;;;;5091563;28;20073;-85
2022/01/13 03:23:16;;;;;;;39.38;14.48;;;;;;;;;;5091694;28;20485;-85
2022/01/13 03:25:45;;;;;;;39.95;15.30;;;;;;;;;;5092751;28;20047;-86
2022/01/13 03:28:15;;;;;;;40.05;16.00;;;;;;;;;;5091954;28;20093;-85
2022/01/13 03:30:42;;;;;;;37.35;14.75;;;;;;;;;;5097356;28;20060;-85
2022/01/13 03:33:08;;;;;;;43.50;15.38;;;;;;;;;;5091565;28;20047;-85
2022/01/13 03:35:34;;;;;;;32.95;13.98;;;;;;;;;;5074591;28;20071;-85
2022/01/13 03:38:01;;;;;;;37.33;15.63;;;;;;;;;;5091626;28;20104;-85
2022/01/13 03:40:27;;;;;;;43.70;15.48;;;;;;;;;;5092682;28;20495;-85
2022/01/13 03:42:54;;;;;;;43.25;15.50;;;;;;;;;;5091452;28;20048;-86
2022/01/13 03:45:22;;;;;;;46.80;14.98;;;;;;;;;;5091524;28;20074;-86
2022/01/13 03:47:48;;;;;;;37.22;15.10;;;;;;;;;;5094098;28;20036;-86
2022/01/13 03:50:15;;;;;;;34.88;13.95;;;;;;;;;;5096960;28;20055;-86
2022/01/13 03:53:04;;;;;;;51.67;16.45;;;;;;;;;;5095380;28;20125;-85
2022/01/13 03:55:36;;;;;;;44.97;15.02;;;;;;;;;;5096934;28;20039;-85
2022/01/13 03:58:02;;;;;;;53.72;13.82;;;;;;;;;;5095737;28;20051;-87
2022/01/13 04:00:47;;;;;;;37.42;13.68;;;;;;;;;;5095432;28;20039;-84
2022/01/13 04:03:13;;;;;;;42.88;14.85;;;;;;;;;;5095443;28;20509;-86
2022/01/13 04:05:58;;;;;;;39.63;13.43;;;;;;;;;;5095400;28;20044;-86
2022/01/13 04:08:24;;;;;;;51.47;14.60;;;;;;;;;;5095541;28;20047;-86
2022/01/13 04:10:52;;;;;;;63.17;15.55;;;;;;;;;;5096334;28;20048;-85
2022/01/13 04:13:42;;;;;;;58.97;15.85;;;;;;;;;;5096667;28;20048;-86
2022/01/13 04:16:07;;;;;;;50.00;13.93;;;;;;;;;;5095268;28;20051;-85
2022/01/13 04:18:33;;;;;;;45.83;14.45;;;;;;;;;;5095292;28;20513;-86
2022/01/13 04:21:01;;;;;;;46.65;15.30;;;;;;;;;;5096315;28;20436;-85
2022/01/13 04:23:27;;;;;;;46.15;15.05;;;;;;;;;;5095001;28;20044;-85
2022/01/13 04:25:52;;;;;;;48.00;14.80;;;;;;;;;;5094887;28;20105;-85
2022/01/13 04:28:25;;;;;;;43.55;13.85;;;;;;;;;;5094933;28;20391;-85
2022/01/13 04:30:53;;;;;;;50.10;13.93;;;;;;;;;;5096171;28;20514;-84
2022/01/13 04:33:20;;;;;;;55.03;14.70;;;;;;;;;;5094958;28;20123;-86
2022/01/13 04:35:46;;;;;;;39.20;13.55;;;;;;;;;;5095870;28;20044;-85
2022/01/13 04:38:12;;;;;;;47.75;14.02;;;;;;;;;;5096192;28;20127;-85
2022/01/13 04:40:44;;;;;;;43.10;13.80;;;;;;;;;;5096147;28;20044;-85
2022/01/13 04:43:11;;;;;;;37.83;13.73;;;;;;;;;;5094849;28;20176;-85
2022/01/13 04:45:37;;;;;;;39.40;13.65;;;;;;;;;;5096136;28;20036;-86
2022/01/13 04:48:03;;;;;;;41.72;14.10;;;;;;;;;;5094582;28;20475;-85
2022/01/13 04:50:29;;;;;;;44.08;14.00;;;;;;;;;;5095677;28;20121;-85
2022/01/13 04:52:55;;;;;;;43.70;13.73;;;;;;;;;;5094285;28;20051;-85
2022/01/13 04:55:27;;;;;;;59.25;14.70;;;;;;;;;;5095918;28;20032;-85
2022/01/13 04:57:53;;;;;;;48.35;13.13;;;;;;;;;;5095203;28;20048;-85
2022/01/13 05:00:20;;;;;;;50.17;13.52;;;;;;;;;;5095596;28;20124;-85
2022/01/13 05:02:46;;;;;;;44.03;14.00;;;;;;;;;;5094257;28;20383;-86
2022/01/13 05:05:12;;;;;;;53.33;14.02;;;;;;;;;;5095813;28;20037;-85
2022/01/13 05:07:38;;;;;;;60.25;13.13;;;;;;;;;;5094028;28;20082;-85
2022/01/13 05:10:04;;;;;;;47.72;13.15;;;;;;;;;;5094267;28;20440;-85
2022/01/13 05:12:41;;;;;;;48.97;14.32;;;;;;;;;;5093892;28;20039;-85
2022/01/13 05:15:09;;;;;;;43.70;12.10;;;;;;;;;;5094141;28;20040;-85
2022/01/13 05:20:20;;;;;;;45.20;14.15;;;;;;;;;;5095423;28;20079;-86
2022/01/13 05:22:46;;;;;;;41.60;12.73;;;;;;;;;;5093748;28;20040;-85
2022/01/13 05:25:12;;;;;;;52.58;13.48;;;;;;;;;;5093998;28;20487;-85
2022/01/13 05:27:38;;;;;;;43.47;13.75;;;;;;;;;;5094987;28;20043;-85
2022/01/13 05:30:05;;;;;;;49.65;13.35;;;;;;;;;;5095230;28;20044;-85
2022/01/13 05:32:31;;;;;;;47.90;14.00;;;;;;;;;;5093504;28;20506;-85
2022/01/13 05:34:57;;;;;;;48.80;13.93;;;;;;;;;;5093953;28;20043;-86
2022/01/13 05:37:23;;;;;;;43.63;13.38;;;;;;;;;;5094481;28;20185;-85
2022/01/13 05:39:49;;;;;;;46.28;13.23;;;;;;;;;;5093765;28;20130;-85
2022/01/13 05:42:15;;;;;;;55.25;14.10;;;;;;;;;;5094570;28;20031;-85
2022/01/13 05:44:41;;;;;;;48.05;14.02;;;;;;;;;;5094628;28;20036;-86
2022/01/13 05:47:08;;;;;;;49.35;14.38;;;;;;;;;;5093362;28;20078;-86
2022/01/13 05:49:34;;;;;;;45.13;14.35;;;;;;;;;;5093365;28;20131;-86
2022/01/13 05:52:00;;;;;;;55.05;15.27;;;;;;;;;;5076277;28;20101;-86
2022/01/13 05:54:26;;;;;;;46.28;15.48;;;;;;;;;;5076380;28;20047;-85
2022/01/13 05:56:52;;;;;;;58.38;15.90;;;;;;;;;;5093243;28;20126;-85
2022/01/13 05:59:20;;;;;;;58.65;15.25;;;;;;;;;;5093181;28;20471;-85
2022/01/13 06:01:46;;;;;;;45.42;14.73;;;;;;;;;;5093113;28;20091;-85
2022/01/13 06:04:12;;;;;;;36.60;13.82;;;;;;;;;;5076220;28;20071;-85
2022/01/13 06:06:37;;;;;;;40.45;14.10;;;;;;;;;;5094476;28;20039;-86
2022/01/13 06:09:03;;;;;;;56.17;14.75;;;;;;;;;;5092192;28;20082;-85
2022/01/13 06:11:37;;;;;;;46.97;13.90;;;;;;;;;;5092665;28;20062;-86
2022/01/13 06:14:04;;;;;;;54.75;15.73;;;;;;;;;;5092810;28;20399;-85
2022/01/13 06:16:30;;;;;;;61.17;16.20;;;;;;;;;;5094435;28;20040;-85
2022/01/13 06:18:56;;;;;;;58.08;14.65;;;;;;;;;;5092927;28;20046;-89
2022/01/13 06:21:22;;;;;;;64.07;16.23;;;;;;;;;;5098892;28;20036;-85
2022/01/13 06:23:48;;;;;;;48.67;15.38;;;;;;;;;;5092482;28;20047;-85
2022/01/13 06:26:14;;;;;;;49.75;14.57;;;;;;;;;;5092689;28;20044;-85
2022/01/13 06:28:40;;;;;;;64.60;16.40;;;;;;;;;;5092767;28;20387;-85
2022/01/13 06:31:06;;;;;;;58.50;15.43;;;;;;;;;;5092857;28;20044;-85
2022/01/13 06:33:32;;;;;;;50.05;15.57;;;;;;;;;;5075601;28;20058;-85
2022/01/13 06:35:59;;;;;;;53.30;14.85;;;;;;;;;;5092259;28;20556;-85
2022/01/13 06:38:25;;;;;;;53.50;15.98;;;;;;;;;;5092194;28;20063;-85
2022/01/13 06:40:52;;;;;;;64.20;17.02;;;;;;;;;;5092439;28;20036;-85
2022/01/13 06:43:18;;;;;;;53.50;15.02;;;;;;;;;;5093671;28;20038;-85
2022/01/13 06:45:44;;;;;;;64.78;17.40;;;;;;;;;;5092331;28;20036;-85
2022/01/13 06:48:10;;;;;;;54.60;16.05;;;;;;;;;;5092391;28;20067;-86
2022/01/13 06:50:36;;;;;;;52.13;15.90;;;;;;;;;;5092608;28;20453;-85
2022/01/13 06:53:03;;;;;;;47.28;14.77;;;;;;;;;;5093430;28;20119;-85
2022/01/13 06:55:29;;;;;;;59.00;15.88;;;;;;;;;;5092431;28;20510;-85
2022/01/13 06:57:55;;;;;;;60.58;17.00;;;;;;;;;;5091947;28;20040;-85
2022/01/13 07:00:23;;;;;;;47.20;15.65;;;;;;;;;;5092446;28;20414;-86
2022/01/13 07:02:49;;;;;;;45.35;15.85;;;;;;;;;;5091773;28;20380;-85
2022/01/13 07:05:15;;;;;;;65.00;16.27;;;;;;;;;;5092231;28;20048;-86
2022/01/13 07:07:41;;;;;;;50.15;16.30;;;;;;;;;;5091779;28;20359;-86
2022/01/13 07:10:10;;;;;;;63.88;17.02;;;;;;;;;;5092011;28;20048;-85
2022/01/13 07:12:36;;;;;;;62.67;17.75;;;;;;;;;;5091898;28;20127;-86
2022/01/13 07:15:02;;;;;;;55.03;15.15;;;;;;;;;;5093355;28;20068;-85
2022/01/13 07:17:28;;;;;;;62.17;16.48;;;;;;;;;;5092148;28;20040;-87
2022/01/13 07:19:54;;;;;;;62.05;17.27;;;;;;;;;;5091761;28;20062;-86
2022/01/13 07:22:20;;;;;;;64.28;15.80;;;;;;;;;;5091747;28;20483;-85
2022/01/13 07:24:46;;;;;;;64.85;16.58;;;;;;;;;;5092831;28;20486;-85
2022/01/13 07:27:12;;;;;;;55.28;16.70;;;;;;;;;;5091739;28;20115;-85
2022/01/13 07:29:42;;;;;;;67.50;16.30;;;;;;;;;;5091390;28;20048;-85
2022/01/13 07:32:09;;;;;;;64.60;16.70;;;;;;;;;;5092077;28;20048;-86
2022/01/13 07:34:35;;;;;;;48.78;15.55;;;;;;;;;;5091318;28;20044;-86
2022/01/13 07:37:01;;;;;;;63.47;15.75;;;;;;;;;;5092700;28;20141;-85
2022/01/13 07:39:27;;;;;;;49.08;15.57;;;;;;;;;;5091562;28;20044;-85
2022/01/13 07:41:53;;;;;;;46.35;15.02;;;;;;;;;;5091634;28;20036;-85
2022/01/13 07:44:19;;;;;;;46.30;16.13;;;;;;;;;;5092691;28;20426;-84
2022/01/13 07:46:45;;;;;;;70.07;16.08;;;;;;;;;;5091786;28;20040;-85
2022/01/13 07:49:11;;;;;;;53.28;15.20;;;;;;;;;;5092713;28;20036;-82
2022/01/13 07:51:37;;;;;;;59.40;16.08;;;;;;;;;;5087965;28;20050;-85
2022/01/13 07:54:03;;;;;;;67.43;15.40;;;;;;;;;;5085308;28;20126;-85
2022/01/13 07:56:29;;;;;;;55.03;15.70;;;;;;;;;;5089348;28;20487;-85
2022/01/13 07:58:55;;;;;;;55.65;15.07;;;;;;;;;;5084341;28;20043;-85
2022/01/13 08:01:21;;;;;;;53.20;15.27;;;;;;;;;;5068152;28;20476;-85
2022/01/13 08:03:48;;;;;;;57.05;15.88;;;;;;;;;;5087591;28;20047;-85
2022/01/13 08:06:14;;;;;;;48.65;14.55;;;;;;;;;;5089404;28;20109;-85
2022/01/13 08:08:40;;;;;;;47.63;14.63;;;;;;;;;;5087989;28;20036;-85
2022/01/13 08:11:07;;;;;;;57.88;16.45;;;;;;;;;;5087835;28;20086;-85
2022/01/13 08:13:34;;;;;;;46.38;15.15;;;;;;;;;;5087926;28;20106;-85
2022/01/13 08:16:02;;;;;;;46.40;14.63;;;;;;;;;;5079560;28;20072;-86
2022/01/13 08:21:13;;;;;;;49.67;15.43;;;;;;;;;;5092409;28;20475;-84
2022/01/13 08:23:39;;;;;;;48.72;15.32;;;;;;;;;;5090876;28;20050;-84
2022/01/13 08:26:05;;;;;;;50.50;15.68;;;;;;;;;;5091548;28;20035;-86
2022/01/13 08:28:31;;;;;;;48.28;15.60;;;;;;;;;;5091023;28;20108;-84
2022/01/13 08:30:58;;;;;;;49.45;16.58;;;;;;;;;;5091501;28;20429;-84
2022/01/13 08:33:24;;;;;;;47.85;17.40;;;;;;;;;;5093919;28;20090;-85
2022/01/13 08:35:51;;;;;;;54.05;17.08;;;;;;;;;;5096641;28;20128;-83
2022/01/13 08:38:18;;;;;;;54.70;17.25;;;;;;;;;;5095814;28;20070;-85
2022/01/13 08:40:45;;;;;;;54.33;15.98;;;;;;;;;;5094647;28;20056;-84
2022/01/13 08:43:11;;;;;;;50.42;16.25;;;;;;;;;;5094764;28;20051;-84
2022/01/13 08:45:37;;;;;;;54.78;17.73;;;;;;;;;;5094444;28;20036;-85
2022/01/13 08:48:03;;;;;;;57.53;17.55;;;;;;;;;;5094578;28;20398;-84
2022/01/13 08:50:29;;;;;;;54.38;16.98;;;;;;;;;;5094404;28;20443;-84
2022/01/13 08:52:55;;;;;;;54.50;17.73;;;;;;;;;;5094393;28;20059;-84
2022/01/13 08:55:21;;;;;;;54.65;16.27;;;;;;;;;;5095695;28;20040;-84
2022/01/13 08:57:47;;;;;;;46.08;16.50;;;;;;;;;;5094374;28;20046;-84
2022/01/13 09:00:13;;;;;;;51.45;16.55;;;;;;;;;;5095541;28;20040;-84
2022/01/13 09:02:43;;;;;;;55.97;17.75;;;;;;;;;;5095795;28;20075;-84
2022/01/13 09:05:09;;;;;;;45.60;17.40;;;;;;;;;;5095601;28;20059;-84
2022/01/13 09:07:35;;;;;;;60.00;17.63;;;;;;;;;;5094533;28;20062;-84
2022/01/13 09:10:01;;;;;;;59.33;17.02;;;;;;;;;;5095498;28;20487;-84
2022/01/13 09:12:27;;;;;;;54.47;18.15;;;;;;;;;;5094353;28;20044;-84
2022/01/13 09:14:59;;;;;;;49.03;16.75;;;;;;;;;;5094039;28;20036;-83
2022/01/13 09:17:26;;;;;;;58.70;17.30;;;;;;;;;;5094063;28;20170;-84
2022/01/13 09:19:52;;;;;;;52.17;17.58;;;;;;;;;;5094015;28;20040;-84
2022/01/13 09:22:19;;;;;;;55.60;17.63;;;;;;;;;;5094127;28;20051;-84
2022/01/13 09:24:45;;;;;;;53.60;17.10;;;;;;;;;;5076969;28;20510;-84
2022/01/13 09:27:11;;;;;;;49.55;17.58;;;;;;;;;;5093977;28;20503;-84
2022/01/13 09:29:37;;;;;;;49.60;17.15;;;;;;;;;;5093861;28;20044;-84
2022/01/13 09:32:03;;;;;;;61.40;19.33;;;;;;;;;;5094004;28;20044;-84
2022/01/13 09:34:30;;;;;;;58.63;19.42;;;;;;;;;;5093394;28;20089;-85
2022/01/13 09:36:56;;;;;;;65.25;20.15;;;;;;;;;;5093671;28;20140;-87
2022/01/13 09:39:22;;;;;;;65.28;19.27;;;;;;;;;;5093560;28;20036;-85
2022/01/13 09:41:49;;;;;;;57.05;19.23;;;;;;;;;;5093629;28;20556;-84
2022/01/13 09:44:15;;;;;;;50.78;18.20;;;;;;;;;;5093426;28;20215;-84
2022/01/13 09:46:41;;;;;;;55.35;19.55;;;;;;;;;;5093418;28;20480;-84
2022/01/13 09:49:08;;;;;;;51.50;19.63;;;;;;;;;;5076326;28;20036;-85
2022/01/13 09:51:35;;;;;;;63.90;20.42;;;;;;;;;;5093703;28;20407;-84
2022/01/13 09:54:01;;;;;;;59.60;20.77;;;;;;;;;;5094598;28;20043;-84
2022/01/13 09:56:27;;;;;;;56.03;19.95;;;;;;;;;;5092936;28;20089;-84
2022/01/13 09:58:53;;;;;;;52.72;19.55;;;;;;;;;;5093479;28;20494;-84
2022/01/13 10:01:20;;;;;;;51.58;19.48;;;;;;;;;;5092849;28;20040;-85
2022/01/13 10:03:46;;;;;;;69.60;20.73;;;;;;;;;;5093062;28;20115;-85
2022/01/13 10:06:13;;;;;;;61.47;20.27;;;;;;;;;;5075954;28;20047;-85
2022/01/13 10:08:40;;;;;;;58.78;19.90;;;;;;;;;;5094519;28;20083;-84
2022/01/13 10:11:25;;;;;;;56.15;20.88;;;;;;;;;;5094037;28;20035;-84
2022/01/13 10:14:11;;;;;;;54.90;20.25;;;;;;;;;;5094394;28;20032;-84
2022/01/13 10:16:44;;;;;;;54.65;21.15;;;;;;;;;;5094130;28;20047;-83
2022/01/13 10:19:29;;;;;;;55.22;20.08;;;;;;;;;;5094252;28;20544;-82
2022/01/13 10:21:57;;;;;;;58.95;19.98;;;;;;;;;;5093024;28;20427;-83
2022/01/13 10:24:25;;;;;;;52.03;19.50;;;;;;;;;;5094122;28;20036;-82
2022/01/13 10:27:01;;;;;;;55.88;20.02;;;;;;;;;;5094132;28;20047;-82
2022/01/13 10:29:43;;;;;;;53.67;20.17;;;;;;;;;;5092916;28;20542;-82
2022/01/13 10:32:10;;;;;;;57.33;19.40;;;;;;;;;;5092664;28;20048;-87
2022/01/13 10:34:38;;;;;;;56.90;19.33;;;;;;;;;;5092235;28;20050;-83
2022/01/13 10:37:11;;;;;;;56.22;18.92;;;;;;;;;;5093571;28;20503;-85
2022/01/13 10:39:51;;;;;;;63.20;20.17;;;;;;;;;;5092252;28;20047;-85
2022/01/13 10:45:06;;;;;;;53.38;19.10;;;;;;;;;;5092207;28;20040;-86
2022/01/13 10:47:32;;;;;;;55.05;19.83;;;;;;;;;;5092874;28;20036;-86
2022/01/13 10:50:03;;;;;;;53.50;19.23;;;;;;;;;;5075222;28;20043;-86
2022/01/13 10:52:29;;;;;;;52.90;19.75;;;;;;;;;;5093542;28;20364;-85
2022/01/13 10:55:10;;;;;;;64.50;20.92;;;;;;;;;;5091799;28;20040;-86
2022/01/13 10:57:37;;;;;;;48.00;18.65;;;;;;;;;;5093369;28;20032;-85
2022/01/13 11:00:18;;;;;;;53.40;19.70;;;;;;;;;;5074884;28;20036;-86
2022/01/13 11:02:44;;;;;;;47.78;18.85;;;;;;;;;;5092015;28;20097;-86
2022/01/13 11:05:10;;;;;;;51.92;19.30;;;;;;;;;;5092938;28;20570;-85
2022/01/13 11:07:37;;;;;;;59.08;19.45;;;;;;;;;;5092235;28;20491;-85
2022/01/13 11:10:04;;;;;;;48.95;19.42;;;;;;;;;;5093205;28;20036;-85
2022/01/13 11:12:35;;;;;;;49.67;18.75;;;;;;;;;;5093155;28;20487;-85
2022/01/13 11:15:05;;;;;;;54.88;20.20;;;;;;;;;;5092933;28;20483;-87
2022/01/13 11:17:40;;;;;;;56.95;20.90;;;;;;;;;;5091950;28;20376;-85
2022/01/13 11:20:07;;;;;;;49.35;19.58;;;;;;;;;;5091581;28;20044;-86
2022/01/13 11:22:35;;;;;;;60.55;19.95;;;;;;;;;;5093176;28;20043;-86
2022/01/13 11:25:02;;;;;;;53.65;20.27;;;;;;;;;;5092276;28;20096;-86
2022/01/13 11:27:29;;;;;;;51.30;20.13;;;;;;;;;;5092144;28;20044;-87
2022/01/13 11:29:55;;;;;;;56.33;19.58;;;;;;;;;;5091886;28;20082;-85
2022/01/13 11:32:21;;;;;;;51.55;19.27;;;;;;;;;;5091473;28;20072;-86
2022/01/13 11:34:47;;;;;;;56.03;20.10;;;;;;;;;;5091529;28;20044;-85
2022/01/13 11:37:13;;;;;;;53.20;20.48;;;;;;;;;;5092481;28;20145;-85
2022/01/13 11:39:44;;;;;;;49.25;18.65;;;;;;;;;;5092790;28;20090;-85
2022/01/13 11:42:11;;;;;;;59.92;21.83;;;;;;;;;;5091394;28;20535;-86
2022/01/13 11:44:37;;;;;;;52.60;20.45;;;;;;;;;;5091253;28;20046;-86
2022/01/13 11:47:08;;;;;;;51.65;19.67;;;;;;;;;;5091226;28;20040;-86
2022/01/13 11:49:53;;;;;;;60.03;21.58;;;;;;;;;;5092921;28;20124;-85
2022/01/13 11:52:31;;;;;;;55.17;20.55;;;;;;;;;;5092742;28;20055;-85
2022/01/13 11:54:57;;;;;;;54.85;19.13;;;;;;;;;;5091423;28;20564;-85
2022/01/13 11:57:25;;;;;;;51.28;19.70;;;;;;;;;;5091134;28;20076;-85
2022/01/13 12:00:00;;;;;;;56.22;20.83;;;;;;;;;;5091581;28;20044;-85
2022/01/13 12:02:30;;;;;;;46.47;18.30;;;;;;;;;;5092630;28;20040;-85
2022/01/13 12:04:59;;;;;;;46.35;18.90;;;;;;;;;;5091799;28;20379;-85
2022/01/13 12:07:36;;;;;;;44.72;17.92;;;;;;;;;;5092544;28;20116;-85
2022/01/13 12:10:02;;;;;;;49.63;18.58;;;;;;;;;;5095456;28;20125;-86
2022/01/13 12:12:32;;;;;;;48.58;19.15;;;;;;;;;;5095444;28;20210;-86
2022/01/13 12:15:28;;;;;;;53.85;19.08;;;;;;;;;;5095140;28;20036;-86
2022/01/13 12:18:00;;;;;;;49.97;18.88;;;;;;;;;;5090823;28;20070;-86
2022/01/13 12:20:39;;;;;;;50.65;20.25;;;;;;;;;;5095214;28;20130;-85
2022/01/13 12:23:44;;;;;;;46.45;19.23;;;;;;;;;;5095049;28;20055;-85
2022/01/13 12:26:29;;;;;;;54.72;20.55;;;;;;;;;;5077093;28;20154;-86
2022/01/13 12:29:13;;;;;;;59.22;20.88;;;;;;;;;;5077446;28;20044;-87
2022/01/13 12:31:51;;;;;;;49.20;20.27;;;;;;;;;;5089287;28;20056;-87
2022/01/13 12:34:21;;;;;;;51.75;19.95;;;;;;;;;;5096135;28;20047;-86
2022/01/13 12:36:47;;;;;;;50.92;19.77;;;;;;;;;;5094598;28;20066;-87
2022/01/13 12:39:15;;;;;;;56.67;21.50;;;;;;;;;;5096187;28;20157;-86
2022/01/13 12:42:00;;;;;;;59.78;22.35;;;;;;;;;;5094867;28;20046;-85
2022/01/13 12:47:13;;;;;;;49.35;21.38;;;;;;;;;;5094536;28;20080;-88
2022/01/13 12:49:39;;;;;;;50.70;22.13;;;;;;;;;;5095948;28;20437;-86
2022/01/13 12:52:05;;;;;;;47.88;20.17;;;;;;;;;;5095890;28;20040;-86
2022/01/13 12:54:32;;;;;;;43.33;19.90;;;;;;;;;;5094551;28;20044;-86
2022/01/13 12:57:02;;;;;;;37.95;19.27;;;;;;;;;;5077295;28;20082;-87
2022/01/13 12:59:28;;;;;;;44.00;20.08;;;;;;;;;;5094471;28;20040;-87
2022/01/13 13:01:57;;;;;;;41.88;20.67;;;;;;;;;;5077181;28;20096;-87
2022/01/13 13:04:23;;;;;;;43.88;20.23;;;;;;;;;;5099962;28;20032;-86
2022/01/13 13:06:49;;;;;;;45.40;21.35;;;;;;;;;;5094252;28;20059;-85
2022/01/13 13:09:20;;;;;;;44.20;21.77;;;;;;;;;;5094309;28;20051;-86
2022/01/13 13:11:50;;;;;;;40.53;19.65;;;;;;;;;;5095295;28;20133;-86
2022/01/13 13:14:23;;;;;;;43.20;20.63;;;;;;;;;;5094268;28;20036;-85
2022/01/13 13:16:50;;;;;;;44.20;20.83;;;;;;;;;;5076952;28;20051;-86
2022/01/13 13:19:16;;;;;;;40.15;19.40;;;;;;;;;;5094895;28;20040;-86
2022/01/13 13:21:45;;;;;;;38.10;19.60;;;;;;;;;;5093729;28;20444;-87
2022/01/13 13:24:11;;;;;;;39.72;19.67;;;;;;;;;;5077548;28;20052;-88
2022/01/13 13:26:37;;;;;;;39.38;20.58;;;;;;;;;;5095178;28;20032;-87
2022/01/13 13:29:03;;;;;;;39.13;20.75;;;;;;;;;;5094119;28;20194;-87
2022/01/13 13:31:30;;;;;;;37.63;19.38;;;;;;;;;;5093862;28;20052;-86
2022/01/13 13:33:59;;;;;;;43.63;21.13;;;;;;;;;;5093899;28;20514;-86
2022/01/13 13:36:35;;;;;;;34.95;18.38;;;;;;;;;;5093475;28;20052;-86
2022/01/13 13:39:04;;;;;;;36.80;20.88;;;;;;;;;;5093871;28;20052;-86
2022/01/13 13:41:35;;;;;;;36.25;19.58;;;;;;;;;;5094641;28;20131;-86
2022/01/13 13:44:01;;;;;;;38.90;20.88;;;;;;;;;;5093813;28;20043;-87
2022/01/13 13:46:28;;;;;;;44.58;20.83;;;;;;;;;;5093336;28;20075;-86
2022/01/13 13:48:54;;;;;;;39.78;20.10;;;;;;;;;;5093501;28;20036;-87
2022/01/13 13:51:25;;;;;;;34.50;19.70;;;;;;;;;;5093385;28;20039;-87
2022/01/13 13:54:09;;;;;;;43.22;20.67;;;;;;;;;;5093415;28;20059;-86
2022/01/13 13:56:47;;;;;;;42.03;20.92;;;;;;;;;;5093039;28;20495;-87
2022/01/13 13:59:15;;;;;;;40.10;19.67;;;;;;;;;;5093224;28;20040;-87
2022/01/13 14:01:42;;;;;;;39.40;19.23;;;;;;;;;;5092961;28;20479;-86
2022/01/13 14:04:08;;;;;;;37.40;18.90;;;;;;;;;;5094434;28;20101;-87
2022/01/13 14:06:38;;;;;;;35.10;20.00;;;;;;;;;;5094542;28;20036;-87
2022/01/13 14:09:04;;;;;;;36.63;19.55;;;;;;;;;;5093206;28;20040;-86
2022/01/13 14:11:42;;;;;;;34.65;20.20;;;;;;;;;;5093267;28;20055;-86
2022/01/13 14:14:09;;;;;;;45.83;20.15;;;;;;;;;;5094374;28;20044;-85
2022/01/13 14:16:36;;;;;;;43.58;19.50;;;;;;;;;;5094436;28;20236;-87
2022/01/13 14:19:04;;;;;;;40.35;19.67;;;;;;;;;;5092592;28;20500;-86
2022/01/13 14:21:44;;;;;;;37.38;19.02;;;;;;;;;;5094049;28;20048;-86
2022/01/13 14:24:10;;;;;;;34.50;18.73;;;;;;;;;;5092488;28;20040;-85
2022/01/13 14:26:36;;;;;;;32.03;19.42;;;;;;;;;;5093094;28;20039;-87
2022/01/13 14:29:02;;;;;;;38.00;20.17;;;;;;;;;;5075714;28;20499;-86
2022/01/13 14:31:36;;;;;;;36.72;18.85;;;;;;;;;;5092083;28;20055;-82
2022/01/13 14:34:03;;;;;;;33.75;19.13;;;;;;;;;;5092423;28;20441;-85
2022/01/13 14:36:36;;;;;;;38.22;17.77;;;;;;;;;;5092333;28;20127;-85
2022/01/13 14:39:07;;;;;;;37.58;18.92;;;;;;;;;;5092293;28;20048;-85
2022/01/13 14:41:40;;;;;;;31.48;17.58;;;;;;;;;;5092766;28;20047;-86
2022/01/13 14:44:10;;;;;;;36.78;18.88;;;;;;;;;;5093603;28;20046;-86
2022/01/13 14:46:37;;;;;;;33.95;18.48;;;;;;;;;;5093682;28;20040;-86